Time;durP1;ratioP1;P1;durP2;ratioP2;P2;SDS_P1;SDS_P2;PMS_P1;PMS_P2;Temp;Humidity;BMP_temperature;BMP_pressure;BME280_temperature;BME280_humidity;BME280_pressure;Samples;Min_cycle;Max_cycle;Signal;HPM_P1;HPM_P2
2022/05/21 00:00:21;;;;;;;0.47;0.45;;;;;;;;;;5063219;28;20028;-84
2022/05/21 00:02:48;;;;;;;0.32;0.28;;;;;;;;;;5060308;28;20025;-83
2022/05/21 00:05:15;;;;;;;0.25;0.25;;;;;;;;;;5067242;28;20051;-83
2022/05/21 00:07:42;;;;;;;0.30;0.30;;;;;;;;;;5062122;28;20539;-82
2022/05/21 00:10:08;;;;;;;0.30;0.30;;;;;;;;;;5068992;28;20536;-83
2022/05/21 00:12:34;;;;;;;0.40;0.40;;;;;;;;;;5060838;28;20033;-81
2022/05/21 00:15:00;;;;;;;0.43;0.30;;;;;;;;;;5064176;28;20035;-82
2022/05/21 00:17:26;;;;;;;0.20;0.20;;;;;;;;;;5059485;28;20131;-83
2022/05/21 00:19:52;;;;;;;0.68;0.40;;;;;;;;;;5060318;28;20127;-83
2022/05/21 00:22:18;;;;;;;0.30;0.30;;;;;;;;;;5063500;28;20033;-81
2022/05/21 00:24:44;;;;;;;0.32;0.32;;;;;;;;;;5061956;28;20089;-81
2022/05/21 00:27:10;;;;;;;0.45;0.45;;;;;;;;;;5066878;28;20404;-82
2022/05/21 00:29:36;;;;;;;0.40;0.40;;;;;;;;;;5060897;28;20048;-84
2022/05/21 00:32:02;;;;;;;0.28;0.17;;;;;;;;;;5067477;28;20391;-83
2022/05/21 00:34:29;;;;;;;0.43;0.35;;;;;;;;;;5066101;28;20494;-84
2022/05/21 00:36:55;;;;;;;2.05;0.45;;;;;;;;;;5061252;28;20127;-83
2022/05/21 00:39:21;;;;;;;0.45;0.45;;;;;;;;;;5065384;28;20133;-83
2022/05/21 00:41:47;;;;;;;0.05;0.05;;;;;;;;;;5061448;28;20071;-80
2022/05/21 00:44:13;;;;;;;0.20;0.20;;;;;;;;;;5065116;28;20021;-82
2022/05/21 00:46:40;;;;;;;0.40;0.40;;;;;;;;;;5060660;28;20016;-84
2022/05/21 00:49:08;;;;;;;0.30;0.30;;;;;;;;;;5062609;28;20028;-85
2022/05/21 00:51:38;;;;;;;0.30;0.30;;;;;;;;;;5057023;28;20029;-86
2022/05/21 00:54:05;;;;;;;0.68;0.55;;;;;;;;;;5068096;28;20493;-83
2022/05/21 00:56:34;;;;;;;0.45;0.30;;;;;;;;;;5055279;28;20024;-85
2022/05/21 01:01:48;;;;;;;0.57;0.45;;;;;;;;;;5064253;28;20173;-85
2022/05/21 01:04:14;;;;;;;0.30;0.30;;;;;;;;;;5062355;28;20040;-85
2022/05/21 01:06:40;;;;;;;0.50;0.50;;;;;;;;;;5065668;28;20035;-83
2022/05/21 01:09:06;;;;;;;0.40;0.40;;;;;;;;;;5066282;28;20054;-87
2022/05/21 01:11:33;;;;;;;0.63;0.52;;;;;;;;;;5061496;28;20033;-82
2022/05/21 01:13:59;;;;;;;0.50;0.40;;;;;;;;;;5061671;28;20025;-84
2022/05/21 01:16:26;;;;;;;0.47;0.47;;;;;;;;;;5062106;28;20127;-84
2022/05/21 01:18:52;;;;;;;2.45;0.93;;;;;;;;;;5063948;28;20043;-82
2022/05/21 01:21:18;;;;;;;0.40;0.28;;;;;;;;;;5064116;28;20387;-84
2022/05/21 01:23:44;;;;;;;0.22;0.22;;;;;;;;;;5054485;28;20059;-84
2022/05/21 01:26:14;;;;;;;0.70;0.32;;;;;;;;;;5063147;28;20101;-83
2022/05/21 01:28:40;;;;;;;0.43;0.43;;;;;;;;;;5063193;28;20028;-82
2022/05/21 01:31:05;;;;;;;0.40;0.40;;;;;;;;;;5060033;28;20025;-84
2022/05/21 01:33:34;;;;;;;0.55;0.40;;;;;;;;;;5064913;28;20391;-83
2022/05/21 01:36:00;;;;;;;0.32;0.32;;;;;;;;;;5064101;28;20021;-83
2022/05/21 01:38:27;;;;;;;0.30;0.20;;;;;;;;;;5061713;28;20045;-83
2022/05/21 01:40:53;;;;;;;0.60;0.60;;;;;;;;;;5067671;28;20029;-84
2022/05/21 01:46:04;;;;;;;0.38;0.38;;;;;;;;;;5063439;28;20044;-83
2022/05/21 01:48:31;;;;;;;1.58;0.73;;;;;;;;;;5063156;28;20079;-82
2022/05/21 01:50:57;;;;;;;0.30;0.30;;;;;;;;;;5062385;28;20036;-82
2022/05/21 01:53:24;;;;;;;0.32;0.32;;;;;;;;;;5057299;28;20443;-85
2022/05/21 01:55:51;;;;;;;0.30;0.30;;;;;;;;;;5061115;28;20032;-82
2022/05/21 01:58:17;;;;;;;0.40;0.40;;;;;;;;;;5057588;28;20040;-84
2022/05/21 02:00:43;;;;;;;0.35;0.35;;;;;;;;;;5061497;28;20016;-84
2022/05/21 02:03:10;;;;;;;2.45;1.02;;;;;;;;;;5061777;28;20799;-82
2022/05/21 02:05:36;;;;;;;0.30;0.30;;;;;;;;;;5061361;28;20039;-83
2022/05/21 02:08:03;;;;;;;0.30;0.22;;;;;;;;;;5062271;28;20085;-85
2022/05/21 02:10:28;;;;;;;0.60;0.60;;;;;;;;;;5067681;28;20051;-83
2022/05/21 02:12:54;;;;;;;0.65;0.60;;;;;;;;;;5066717;28;20489;-85
2022/05/21 02:15:20;;;;;;;0.20;0.20;;;;;;;;;;5064889;28;20017;-84
2022/05/21 02:17:46;;;;;;;0.47;0.43;;;;;;;;;;5061133;28;20495;-84
2022/05/21 02:20:12;;;;;;;0.65;0.40;;;;;;;;;;5057408;28;20028;-83
2022/05/21 02:22:38;;;;;;;4.03;1.00;;;;;;;;;;5060379;28;20369;-85
2022/05/21 02:25:05;;;;;;;4.70;0.50;;;;;;;;;;5064133;28;20029;-84
2022/05/21 02:27:31;;;;;;;0.82;0.60;;;;;;;;;;5064556;28;20029;-84
2022/05/21 02:29:57;;;;;;;1.38;0.52;;;;;;;;;;5057653;28;20016;-85
2022/05/21 02:32:23;;;;;;;0.28;0.28;;;;;;;;;;5066703;28;20058;-82
2022/05/21 02:34:48;;;;;;;0.55;0.30;;;;;;;;;;5060785;28;20468;-84
2022/05/21 02:39:59;;;;;;;3.53;0.60;;;;;;;;;;5055372;28;20056;-84
2022/05/21 02:42:43;;;;;;;0.60;0.60;;;;;;;;;;5064997;28;20482;-83
2022/05/21 02:45:10;;;;;;;0.32;0.32;;;;;;;;;;5060192;28;20039;-82
2022/05/21 02:47:36;;;;;;;0.70;0.70;;;;;;;;;;5052704;28;20044;-82
2022/05/21 02:50:03;;;;;;;0.52;0.50;;;;;;;;;;5061264;28;20039;-83
2022/05/21 02:52:29;;;;;;;0.60;0.60;;;;;;;;;;5062454;28;20024;-83
2022/05/21 02:54:54;;;;;;;0.52;0.52;;;;;;;;;;5060695;28;20036;-83
2022/05/21 02:57:20;;;;;;;0.50;0.35;;;;;;;;;;5064363;28;20024;-81
2022/05/21 02:59:49;;;;;;;0.55;0.47;;;;;;;;;;5059170;28;20052;-84
2022/05/21 03:02:14;;;;;;;0.60;0.60;;;;;;;;;;5062288;28;20064;-81
2022/05/21 03:04:40;;;;;;;0.20;0.20;;;;;;;;;;5063159;28;20083;-86
2022/05/21 03:07:06;;;;;;;0.65;0.50;;;;;;;;;;5058380;28;20037;-85
2022/05/21 03:12:17;;;;;;;0.50;0.50;;;;;;;;;;5067403;28;20113;-85
2022/05/21 03:14:43;;;;;;;0.30;0.30;;;;;;;;;;5068181;28;20452;-83
2022/05/21 03:17:09;;;;;;;0.73;0.65;;;;;;;;;;5069092;28;20044;-84
2022/05/21 03:19:35;;;;;;;0.57;0.57;;;;;;;;;;5059818;28;20086;-84
2022/05/21 03:22:01;;;;;;;1.55;0.40;;;;;;;;;;5065508;28;20036;-82
2022/05/21 03:24:28;;;;;;;0.43;0.30;;;;;;;;;;5066742;28;20021;-85
2022/05/21 03:26:54;;;;;;;0.63;0.60;;;;;;;;;;5063039;28;20068;-84
2022/05/21 03:29:20;;;;;;;0.52;0.47;;;;;;;;;;5060319;28;20115;-85
2022/05/21 03:31:46;;;;;;;1.00;0.82;;;;;;;;;;5062082;28;20088;-83
2022/05/21 03:34:11;;;;;;;0.40;0.40;;;;;;;;;;5069819;28;20033;-83
2022/05/21 03:36:37;;;;;;;0.30;0.25;;;;;;;;;;5065180;28;20112;-82
2022/05/21 03:39:04;;;;;;;0.68;0.55;;;;;;;;;;5062210;28;20033;-84
2022/05/21 03:41:30;;;;;;;0.40;0.40;;;;;;;;;;5064249;28;20243;-85
2022/05/21 03:43:56;;;;;;;0.25;0.25;;;;;;;;;;5061821;28;20127;-82
2022/05/21 03:46:25;;;;;;;0.45;0.45;;;;;;;;;;5064699;28;20119;-85
2022/05/21 03:48:51;;;;;;;1.42;0.52;;;;;;;;;;5066419;28;20039;-82
2022/05/21 03:51:17;;;;;;;0.80;0.60;;;;;;;;;;5067996;28;20025;-85
2022/05/21 03:53:43;;;;;;;0.52;0.40;;;;;;;;;;5061020;28;20091;-86
2022/05/21 03:56:09;;;;;;;0.80;0.68;;;;;;;;;;5063360;28;20033;-82
2022/05/21 03:58:35;;;;;;;0.10;0.10;;;;;;;;;;5062002;28;20119;-83
2022/05/21 04:01:01;;;;;;;3.83;0.75;;;;;;;;;;5063785;28;20032;-82
2022/05/21 04:03:27;;;;;;;0.20;0.20;;;;;;;;;;5065971;28;20086;-82
2022/05/21 04:05:57;;;;;;;0.77;0.43;;;;;;;;;;5066940;28;20502;-83
2022/05/21 04:08:23;;;;;;;1.45;0.38;;;;;;;;;;5066213;28;20119;-84
2022/05/21 04:10:49;;;;;;;0.60;0.50;;;;;;;;;;5065866;28;20108;-83
2022/05/21 04:13:15;;;;;;;0.50;0.50;;;;;;;;;;5057161;28;20017;-82
2022/05/21 04:15:41;;;;;;;0.30;0.30;;;;;;;;;;5060171;28;20055;-80
2022/05/21 04:18:08;;;;;;;0.30;0.30;;;;;;;;;;5064659;28;20498;-80
2022/05/21 04:20:34;;;;;;;0.30;0.30;;;;;;;;;;5065942;28;20033;-82
2022/05/21 04:23:00;;;;;;;0.10;0.10;;;;;;;;;;5054868;28;20075;-81
2022/05/21 04:25:26;;;;;;;2.40;0.88;;;;;;;;;;5063188;28;20082;-81
2022/05/21 04:27:52;;;;;;;0.20;0.20;;;;;;;;;;5058764;28;20063;-81
2022/05/21 04:30:20;;;;;;;0.10;0.10;;;;;;;;;;5058015;28;20025;-82
2022/05/21 04:32:47;;;;;;;0.20;0.20;;;;;;;;;;5066848;28;20056;-83
2022/05/21 04:35:14;;;;;;;0.35;0.20;;;;;;;;;;5057553;28;20033;-85
2022/05/21 04:37:40;;;;;;;0.20;0.15;;;;;;;;;;5064887;28;20035;-81
2022/05/21 04:40:07;;;;;;;0.10;0.10;;;;;;;;;;5063186;28;20024;-81
2022/05/21 04:42:33;;;;;;;1.95;0.98;;;;;;;;;;5065817;28;20124;-82
2022/05/21 04:44:59;;;;;;;2.22;0.60;;;;;;;;;;5067020;28;20028;-84
2022/05/21 04:47:25;;;;;;;0.10;0.10;;;;;;;;;;5062319;28;20137;-81
2022/05/21 04:49:51;;;;;;;2.10;0.57;;;;;;;;;;5065321;28;20032;-81
2022/05/21 04:52:17;;;;;;;0.90;0.68;;;;;;;;;;5066527;28;20398;-82
2022/05/21 04:54:43;;;;;;;0.10;0.10;;;;;;;;;;5066103;28;20021;-84
2022/05/21 04:57:09;;;;;;;0.65;0.47;;;;;;;;;;5061779;28;20523;-82
2022/05/21 04:59:35;;;;;;;0.32;0.17;;;;;;;;;;5067963;28;20025;-82
2022/05/21 05:02:01;;;;;;;0.30;0.30;;;;;;;;;;5062071;28;20032;-82
2022/05/21 05:04:27;;;;;;;0.30;0.30;;;;;;;;;;5064501;28;20050;-81
2022/05/21 05:06:53;;;;;;;0.50;0.50;;;;;;;;;;5065831;28;20029;-82
2022/05/21 05:09:23;;;;;;;0.10;0.10;;;;;;;;;;5067109;28;20032;-82
2022/05/21 05:11:49;;;;;;;0.40;0.40;;;;;;;;;;5066216;28;20023;-82
2022/05/21 05:14:15;;;;;;;0.52;0.45;;;;;;;;;;5062676;28;20723;-80
2022/05/21 05:16:41;;;;;;;1.40;0.73;;;;;;;;;;5063277;28;20558;-83
2022/05/21 05:19:07;;;;;;;0.30;0.30;;;;;;;;;;5063888;28;20124;-80
2022/05/21 05:21:33;;;;;;;0.60;0.40;;;;;;;;;;5065992;28;20060;-81
2022/05/21 05:23:59;;;;;;;2.92;0.43;;;;;;;;;;5062771;28;20476;-80
2022/05/21 05:26:25;;;;;;;0.93;0.93;;;;;;;;;;5064855;28;20039;-81
2022/05/21 05:28:51;;;;;;;0.30;0.30;;;;;;;;;;5064897;28;20054;-80
2022/05/21 05:31:17;;;;;;;0.55;0.55;;;;;;;;;;5063903;28;20115;-81
2022/05/21 05:33:43;;;;;;;3.53;0.50;;;;;;;;;;5057027;28;20029;-81
2022/05/21 05:36:09;;;;;;;0.93;0.73;;;;;;;;;;5066343;28;20037;-82
2022/05/21 05:38:35;;;;;;;0.30;0.30;;;;;;;;;;5064390;28;20039;-79
2022/05/21 05:41:01;;;;;;;0.20;0.20;;;;;;;;;;5067656;28;20111;-80
2022/05/21 05:43:27;;;;;;;1.10;0.60;;;;;;;;;;5064915;28;20032;-80
2022/05/21 05:45:58;;;;;;;0.25;0.25;;;;;;;;;;5066053;28;20085;-83
2022/05/21 05:48:24;;;;;;;6.65;1.10;;;;;;;;;;5063388;28;20032;-79
2022/05/21 05:50:50;;;;;;;0.52;0.52;;;;;;;;;;5064761;28;20364;-83
2022/05/21 05:53:16;;;;;;;2.10;0.60;;;;;;;;;;5056761;28;20535;-82
2022/05/21 05:55:42;;;;;;;1.13;0.43;;;;;;;;;;5067524;28;20028;-82
2022/05/21 06:00:53;;;;;;;0.77;0.70;;;;;;;;;;5068025;28;20039;-82
2022/05/21 06:03:20;;;;;;;0.82;0.55;;;;;;;;;;5054718;28;20025;-81
2022/05/21 06:05:50;;;;;;;0.35;0.35;;;;;;;;;;5062934;28;20033;-84
2022/05/21 06:08:16;;;;;;;3.72;0.50;;;;;;;;;;5060546;28;20024;-85
2022/05/21 06:10:43;;;;;;;0.40;0.40;;;;;;;;;;5060178;28;20020;-82
2022/05/21 06:13:10;;;;;;;6.63;1.33;;;;;;;;;;5062299;28;20596;-83
2022/05/21 06:15:36;;;;;;;0.22;0.22;;;;;;;;;;5067222;28;20525;-81
2022/05/21 06:18:06;;;;;;;0.82;0.82;;;;;;;;;;5064074;28;20161;-83
2022/05/21 06:20:32;;;;;;;0.40;0.40;;;;;;;;;;5067822;28;20033;-81
2022/05/21 06:22:58;;;;;;;0.50;0.50;;;;;;;;;;5064515;28;20032;-81
2022/05/21 06:25:25;;;;;;;0.82;0.55;;;;;;;;;;5061812;28;20028;-82
2022/05/21 06:27:52;;;;;;;0.38;0.30;;;;;;;;;;5050610;28;20476;-82
2022/05/21 06:30:19;;;;;;;1.02;0.93;;;;;;;;;;5060779;28;20021;-81
2022/05/21 06:32:45;;;;;;;0.82;0.75;;;;;;;;;;5062341;28;20390;-80
2022/05/21 06:35:11;;;;;;;5.18;0.50;;;;;;;;;;5063092;28;20036;-83
2022/05/21 06:37:38;;;;;;;4.63;0.38;;;;;;;;;;5065045;28;20036;-79
2022/05/21 06:40:05;;;;;;;1.77;0.80;;;;;;;;;;5061377;28;20041;-81
2022/05/21 06:42:31;;;;;;;0.40;0.40;;;;;;;;;;5061450;28;20106;-81
2022/05/21 06:44:57;;;;;;;0.52;0.45;;;;;;;;;;5058599;28;20048;-80
2022/05/21 06:47:23;;;;;;;0.60;0.50;;;;;;;;;;5067767;28;20035;-80
2022/05/21 06:49:52;;;;;;;0.35;0.30;;;;;;;;;;5071388;28;20021;-80
2022/05/21 06:52:18;;;;;;;0.70;0.70;;;;;;;;;;5071049;28;20029;-81
2022/05/21 06:54:44;;;;;;;0.57;0.57;;;;;;;;;;5058756;28;20116;-81
2022/05/21 06:57:13;;;;;;;0.93;0.70;;;;;;;;;;5070847;28;20052;-80
2022/05/21 06:59:39;;;;;;;0.47;0.47;;;;;;;;;;5060273;28;20872;-83
2022/05/21 07:02:05;;;;;;;0.40;0.40;;;;;;;;;;5068776;28;20028;-82
2022/05/21 07:07:35;;;;;;;0.85;0.47;;;;;;;;;;5056665;28;20023;-80
2022/05/21 07:10:08;;;;;;;0.85;0.47;;;;;;;;;;5070419;28;20052;-80
2022/05/21 07:12:35;;;;;;;0.65;0.43;;;;;;;;;;5065265;28;20021;-78
2022/05/21 07:15:02;;;;;;;1.05;0.75;;;;;;;;;;5064225;28;20037;-81
2022/05/21 07:17:28;;;;;;;0.17;0.17;;;;;;;;;;5062941;28;20056;-79
2022/05/21 07:19:54;;;;;;;0.40;0.40;;;;;;;;;;5056133;28;20048;-79
2022/05/21 07:22:21;;;;;;;0.30;0.30;;;;;;;;;;5064687;28;20426;-83
2022/05/21 07:24:47;;;;;;;0.40;0.38;;;;;;;;;;5069919;28;20032;-80
2022/05/21 07:27:13;;;;;;;0.45;0.38;;;;;;;;;;5065645;28;20038;-82
2022/05/21 07:29:43;;;;;;;0.28;0.28;;;;;;;;;;5064904;28;20055;-82
2022/05/21 07:32:17;;;;;;;0.82;0.60;;;;;;;;;;5066390;28;20093;-76
2022/05/21 07:34:43;;;;;;;0.50;0.50;;;;;;;;;;5065332;28;20047;-77
2022/05/21 07:37:09;;;;;;;1.45;0.70;;;;;;;;;;5061485;28;20053;-77
2022/05/21 07:39:34;;;;;;;0.30;0.30;;;;;;;;;;5064956;28;20028;-78
2022/05/21 07:42:01;;;;;;;0.28;0.20;;;;;;;;;;5065473;28;20035;-78
2022/05/21 07:44:27;;;;;;;0.80;0.47;;;;;;;;;;5064969;28;20025;-79
2022/05/21 07:46:52;;;;;;;0.85;0.40;;;;;;;;;;5062196;28;20025;-80
2022/05/21 07:49:18;;;;;;;0.28;0.28;;;;;;;;;;5066297;28;20028;-80
2022/05/21 07:51:44;;;;;;;0.65;0.65;;;;;;;;;;5064197;28;20033;-85
2022/05/21 07:54:10;;;;;;;0.50;0.50;;;;;;;;;;5060549;28;20025;-81
2022/05/21 07:56:36;;;;;;;0.57;0.57;;;;;;;;;;5062931;28;20056;-84
2022/05/21 07:59:02;;;;;;;0.63;0.63;;;;;;;;;;5066848;28;20044;-87
2022/05/21 08:01:28;;;;;;;0.57;0.43;;;;;;;;;;5072375;28;20029;-83
2022/05/21 08:03:54;;;;;;;0.43;0.43;;;;;;;;;;5067185;28;20368;-82
2022/05/21 08:06:20;;;;;;;0.35;0.35;;;;;;;;;;5066696;28;20024;-78
2022/05/21 08:08:46;;;;;;;0.25;0.20;;;;;;;;;;5064275;28;20069;-80
2022/05/21 08:11:12;;;;;;;2.30;0.52;;;;;;;;;;5060364;28;20131;-83
2022/05/21 08:13:39;;;;;;;0.95;0.73;;;;;;;;;;5061757;28;20103;-76
2022/05/21 08:16:05;;;;;;;0.55;0.50;;;;;;;;;;5069466;28;20033;-75
2022/05/21 08:18:31;;;;;;;0.30;0.30;;;;;;;;;;5061509;28;20525;-76
2022/05/21 08:20:57;;;;;;;1.23;0.98;;;;;;;;;;5057724;28;20054;-82
2022/05/21 08:28:53;;;;;;;0.47;0.47;;;;;;;;;;5064419;28;20039;-81
2022/05/21 08:31:19;;;;;;;0.40;0.40;;;;;;;;;;5068109;28;20028;-82
2022/05/21 08:33:45;;;;;;;0.70;0.60;;;;;;;;;;5059321;28;20024;-84
2022/05/21 08:36:11;;;;;;;1.15;0.73;;;;;;;;;;5059361;28;20029;-77
2022/05/21 08:38:37;;;;;;;0.30;0.30;;;;;;;;;;5065593;28;20028;-80
2022/05/21 08:41:14;;;;;;;0.70;0.70;;;;;;;;;;5068325;28;20814;-78
2022/05/21 08:43:58;;;;;;;1.00;0.60;;;;;;;;;;5065772;28;20106;-76
2022/05/21 08:46:27;;;;;;;0.95;0.65;;;;;;;;;;5058925;28;20039;-77
2022/05/21 08:48:56;;;;;;;1.48;0.60;;;;;;;;;;5058987;28;20044;-77
2022/05/21 08:51:25;;;;;;;0.57;0.45;;;;;;;;;;5058243;28;20067;-76
2022/05/21 08:53:52;;;;;;;0.50;0.50;;;;;;;;;;5054144;28;20560;-77
2022/05/21 08:56:19;;;;;;;0.32;0.32;;;;;;;;;;5060647;28;20027;-79
2022/05/21 08:58:49;;;;;;;0.47;0.38;;;;;;;;;;5063808;28;20032;-80
2022/05/21 09:01:17;;;;;;;1.10;0.45;;;;;;;;;;5066694;28;20048;-77
2022/05/21 09:03:44;;;;;;;1.23;0.50;;;;;;;;;;5062894;28;20058;-80
2022/05/21 09:06:19;;;;;;;0.40;0.40;;;;;;;;;;5060041;28;20074;-82
2022/05/21 09:09:03;;;;;;;0.60;0.60;;;;;;;;;;5054930;28;20051;-84
2022/05/21 09:11:34;;;;;;;0.60;0.60;;;;;;;;;;5065801;28;20638;-81
2022/05/21 09:14:11;;;;;;;0.53;0.53;;;;;;;;;;5061141;28;20021;-77
2022/05/21 09:19:24;;;;;;;0.77;0.77;;;;;;;;;;5063279;28;20102;-88
2022/05/21 09:21:55;;;;;;;0.80;0.30;;;;;;;;;;5054224;28;20038;-82
2022/05/21 09:24:40;;;;;;;2.33;1.10;;;;;;;;;;5067144;28;20028;-79
2022/05/21 09:27:26;;;;;;;1.83;1.23;;;;;;;;;;5057033;28;20037;-89
2022/05/21 09:30:10;;;;;;;3.78;0.55;;;;;;;;;;5064673;28;20028;-89
2022/05/21 09:32:36;;;;;;;0.68;0.68;;;;;;;;;;5056757;28;20081;-82
2022/05/21 09:35:05;;;;;;;1.25;0.98;;;;;;;;;;5050226;28;20029;-83
2022/05/21 09:37:31;;;;;;;0.60;0.60;;;;;;;;;;5056743;28;20051;-85
2022/05/21 09:39:57;;;;;;;0.60;0.60;;;;;;;;;;5060726;28;20025;-84
2022/05/21 09:45:24;;;;;;;0.57;0.43;;;;;;;;;;5064057;28;20061;-85
2022/05/21 09:47:50;;;;;;;0.85;0.80;;;;;;;;;;5057211;28;20033;-85
2022/05/21 09:50:21;;;;;;;1.00;0.90;;;;;;;;;;5064404;28;20055;-84
2022/05/21 09:52:49;;;;;;;1.30;1.20;;;;;;;;;;5060180;28;20028;-85
2022/05/21 09:55:26;;;;;;;4.25;1.63;;;;;;;;;;5056748;28;20097;-84
2022/05/21 09:57:52;;;;;;;0.80;0.77;;;;;;;;;;5047410;28;20468;-84
2022/05/21 10:00:30;;;;;;;3.08;1.23;;;;;;;;;;5060908;28;20107;-86
2022/05/21 10:02:57;;;;;;;2.80;1.50;;;;;;;;;;5066138;28;20463;-83
2022/05/21 10:05:26;;;;;;;1.80;1.10;;;;;;;;;;5068495;28;20040;-83
2022/05/21 10:10:58;;;;;;;1.33;0.77;;;;;;;;;;5061241;28;20552;-83
2022/05/21 10:13:24;;;;;;;0.98;0.90;;;;;;;;;;5059145;28;20386;-86
2022/05/21 10:15:54;;;;;;;2.67;1.30;;;;;;;;;;5069521;28;20098;-83
2022/05/21 10:18:20;;;;;;;1.27;0.73;;;;;;;;;;5066419;28;20036;-83
2022/05/21 10:20:47;;;;;;;1.92;1.25;;;;;;;;;;5072941;28;20035;-84
2022/05/21 10:23:19;;;;;;;1.35;1.17;;;;;;;;;;5073339;28;20032;-84
2022/05/21 10:26:03;;;;;;;3.13;1.13;;;;;;;;;;5064236;28;20072;-82
2022/05/21 10:28:38;;;;;;;2.75;1.45;;;;;;;;;;5071380;28;20032;-84
2022/05/21 10:31:06;;;;;;;1.38;1.27;;;;;;;;;;5063395;28;20104;-84
2022/05/21 10:33:40;;;;;;;1.55;1.15;;;;;;;;;;5061715;28;20020;-83
2022/05/21 10:36:16;;;;;;;2.55;1.50;;;;;;;;;;5053081;28;20029;-83
2022/05/21 10:39:06;;;;;;;1.95;1.23;;;;;;;;;;5053960;28;20324;-83
2022/05/21 10:41:54;;;;;;;2.47;1.90;;;;;;;;;;5077102;28;20024;-83
2022/05/21 10:44:39;;;;;;;1.67;1.17;;;;;;;;;;5060594;28;20056;-82
2022/05/21 10:47:23;;;;;;;1.92;1.65;;;;;;;;;;5056144;28;20045;-82
2022/05/21 10:50:01;;;;;;;2.00;1.30;;;;;;;;;;5071991;28;20028;-83
2022/05/21 10:52:32;;;;;;;1.30;0.95;;;;;;;;;;5073162;28;20391;-84
2022/05/21 10:55:17;;;;;;;2.22;0.93;;;;;;;;;;5064444;28;20037;-85
2022/05/21 10:58:02;;;;;;;2.08;1.40;;;;;;;;;;5064796;28;20032;-79
2022/05/21 11:00:31;;;;;;;2.58;1.40;;;;;;;;;;5060859;28;20427;-78
2022/05/21 11:03:10;;;;;;;1.80;1.40;;;;;;;;;;5068939;28;20503;-82
2022/05/21 11:05:57;;;;;;;1.63;1.52;;;;;;;;;;5064401;28;20035;-81
2022/05/21 11:08:27;;;;;;;2.53;1.40;;;;;;;;;;5055877;28;20066;-78
2022/05/21 11:10:56;;;;;;;1.73;1.33;;;;;;;;;;5062701;28;20545;-75
2022/05/21 11:13:26;;;;;;;1.65;1.30;;;;;;;;;;5068285;28;20270;-74
2022/05/21 11:15:54;;;;;;;1.40;1.30;;;;;;;;;;5057342;28;20037;-74
2022/05/21 11:18:39;;;;;;;3.72;1.92;;;;;;;;;;5059013;28;20075;-77
2022/05/21 11:21:20;;;;;;;3.70;1.83;;;;;;;;;;5060339;28;20476;-80
2022/05/21 11:24:04;;;;;;;1.70;1.52;;;;;;;;;;5055013;28;20387;-78
2022/05/21 11:26:48;;;;;;;1.00;0.90;;;;;;;;;;5062909;28;20487;-76
2022/05/21 11:29:19;;;;;;;3.55;0.88;;;;;;;;;;5066409;28;20035;-77
2022/05/21 11:37:26;;;;;;;4.45;1.67;;;;;;;;;;5064466;28;20086;-77
2022/05/21 11:39:53;;;;;;;1.55;1.30;;;;;;;;;;5062636;28;20478;-76
2022/05/21 11:42:22;;;;;;;1.40;1.30;;;;;;;;;;5079260;28;20036;-81
2022/05/21 11:44:55;;;;;;;1.30;1.00;;;;;;;;;;5066552;28;20063;-85
2022/05/21 11:47:21;;;;;;;2.13;1.00;;;;;;;;;;5059100;28;20021;-78
2022/05/21 11:50:05;;;;;;;1.48;1.20;;;;;;;;;;5055547;28;20025;-77
2022/05/21 11:52:37;;;;;;;1.77;0.98;;;;;;;;;;5064804;28;20345;-83
2022/05/21 11:55:09;;;;;;;6.15;1.15;;;;;;;;;;5060752;28;20097;-78
2022/05/21 11:57:43;;;;;;;2.10;1.15;;;;;;;;;;5057400;28;20024;-77
2022/05/21 12:00:18;;;;;;;1.80;1.38;;;;;;;;;;5060748;28;20025;-78
2022/05/21 12:02:53;;;;;;;4.00;1.48;;;;;;;;;;5051000;28;20032;-78
2022/05/21 12:05:34;;;;;;;2.03;1.55;;;;;;;;;;5062602;28;20017;-77
2022/05/21 12:08:00;;;;;;;;;;;;;;;;;;5062198;28;20249;-77
2022/05/21 12:10:28;;;;;;;1.85;0.95;;;;;;;;;;5069473;28;19915;-81
2022/05/21 12:13:03;;;;;;;1.45;0.90;;;;;;;;;;5058512;28;20127;-77
2022/05/21 12:15:38;;;;;;;4.30;0.80;;;;;;;;;;5060423;28;20029;-78
2022/05/21 12:18:09;;;;;;;1.02;0.93;;;;;;;;;;5061049;28;20045;-76
2022/05/21 12:20:45;;;;;;;2.40;0.95;;;;;;;;;;5058222;28;20084;-78
2022/05/21 12:23:12;;;;;;;5.85;1.75;;;;;;;;;;5062233;28;20032;-76
2022/05/21 12:25:59;;;;;;;0.73;0.70;;;;;;;;;;5060386;28;20024;-79
2022/05/21 12:28:29;;;;;;;1.40;1.20;;;;;;;;;;5055338;28;20032;-76
2022/05/21 12:30:59;;;;;;;1.85;1.17;;;;;;;;;;5065156;28;20029;-79
2022/05/21 12:33:32;;;;;;;1.38;0.75;;;;;;;;;;5066589;28;20033;-77
2022/05/21 12:36:02;;;;;;;0.88;0.52;;;;;;;;;;5058483;28;20040;-77
2022/05/21 12:38:33;;;;;;;0.70;0.65;;;;;;;;;;5054245;28;20025;-77
2022/05/21 12:41:11;;;;;;;0.88;0.80;;;;;;;;;;5065710;28;20036;-76
2022/05/21 12:43:42;;;;;;;0.70;0.70;;;;;;;;;;5068272;28;20038;-90
2022/05/21 12:46:17;;;;;;;2.97;1.00;;;;;;;;;;5062411;28;20073;-79
2022/05/21 12:48:44;;;;;;;2.28;0.82;;;;;;;;;;5056293;28;20017;-76
2022/05/21 12:51:11;;;;;;;0.73;0.50;;;;;;;;;;5054751;28;20475;-76
2022/05/21 12:53:39;;;;;;;3.10;1.02;;;;;;;;;;5057837;28;20039;-77
2022/05/21 12:56:16;;;;;;;1.65;1.02;;;;;;;;;;5061090;28;20043;-76
2022/05/21 12:58:42;;;;;;;1.58;1.48;;;;;;;;;;5059525;28;20047;-76
2022/05/21 13:01:09;;;;;;;1.80;1.00;;;;;;;;;;5066297;28;20028;-76
2022/05/21 13:03:36;;;;;;;0.98;0.77;;;;;;;;;;5056352;28;20020;-76
2022/05/21 13:06:04;;;;;;;1.98;1.10;;;;;;;;;;5051558;28;20101;-76
2022/05/21 13:08:31;;;;;;;1.15;0.80;;;;;;;;;;5058099;28;20025;-76
2022/05/21 13:11:08;;;;;;;1.35;0.85;;;;;;;;;;5058377;28;20430;-76
2022/05/21 13:13:36;;;;;;;6.45;0.50;;;;;;;;;;5058392;28;20025;-77
2022/05/21 13:16:04;;;;;;;3.83;1.27;;;;;;;;;;5051466;28;20052;-77
2022/05/21 13:18:46;;;;;;;2.13;0.63;;;;;;;;;;5058695;28;20061;-77
2022/05/21 13:21:27;;;;;;;6.50;1.67;;;;;;;;;;5064476;28;20025;-77
2022/05/21 13:23:53;;;;;;;;;;;;;;;;;;5057902;28;20116;-74
2022/05/21 13:26:23;;;;;;;1.13;0.90;;;;;;;;;;5057092;28;20455;-77
2022/05/21 13:28:49;;;;;;;1.33;1.17;;;;;;;;;;5057858;28;20156;-79
2022/05/21 13:31:16;;;;;;;1.40;1.30;;;;;;;;;;5067408;28;20049;-76
2022/05/21 13:33:50;;;;;;;2.50;1.05;;;;;;;;;;5062371;28;20032;-76
2022/05/21 13:36:17;;;;;;;2.33;1.08;;;;;;;;;;5058131;28;20067;-80
2022/05/21 13:38:49;;;;;;;0.52;0.45;;;;;;;;;;5062673;28;20063;-78
2022/05/21 13:41:27;;;;;;;0.43;0.43;;;;;;;;;;5068670;28;20044;-74
2022/05/21 13:43:54;;;;;;;0.40;0.40;;;;;;;;;;5061081;28;20036;-76
2022/05/21 13:46:31;;;;;;;2.35;0.68;;;;;;;;;;5056649;28;20036;-76
2022/05/21 13:48:58;;;;;;;1.10;0.70;;;;;;;;;;5063345;28;20027;-76
2022/05/21 13:51:25;;;;;;;0.38;0.30;;;;;;;;;;5059889;28;20024;-76
2022/05/21 13:53:53;;;;;;;0.15;0.15;;;;;;;;;;5057326;28;20043;-76
2022/05/21 13:56:30;;;;;;;0.43;0.40;;;;;;;;;;5064421;28;20111;-76
2022/05/21 13:59:04;;;;;;;0.40;0.38;;;;;;;;;;5053038;28;20017;-76
2022/05/21 14:01:31;;;;;;;1.45;0.77;;;;;;;;;;5054142;28;20056;-76
2022/05/21 14:04:05;;;;;;;1.95;0.93;;;;;;;;;;5060096;28;20055;-76
2022/05/21 14:06:31;;;;;;;0.70;0.60;;;;;;;;;;5054826;28;20074;-76
2022/05/21 14:08:59;;;;;;;8.45;0.52;;;;;;;;;;5059086;28;20028;-77
2022/05/21 14:11:26;;;;;;;0.85;0.73;;;;;;;;;;5066483;28;20028;-78
2022/05/21 14:13:55;;;;;;;0.50;0.45;;;;;;;;;;5057088;28;20025;-76
2022/05/21 14:16:29;;;;;;;0.98;0.90;;;;;;;;;;5064444;28;20076;-77
2022/05/21 14:19:00;;;;;;;1.52;1.30;;;;;;;;;;5050124;28;20055;-77
2022/05/21 14:21:26;;;;;;;3.78;3.00;;;;;;;;;;5053552;28;20029;-75
2022/05/21 14:24:06;;;;;;;1.77;1.33;;;;;;;;;;5064707;28;20060;-75
2022/05/21 14:26:33;;;;;;;0.68;0.55;;;;;;;;;;5057471;28;20149;-74
2022/05/21 14:29:00;;;;;;;2.45;1.00;;;;;;;;;;5062836;28;20024;-74
2022/05/21 14:31:27;;;;;;;1.13;1.02;;;;;;;;;;5052680;28;20020;-74
2022/05/21 14:33:55;;;;;;;0.80;0.80;;;;;;;;;;5058869;28;20652;-74
2022/05/21 14:36:22;;;;;;;1.05;0.73;;;;;;;;;;5065703;28;20024;-75
2022/05/21 14:38:48;;;;;;;1.05;0.95;;;;;;;;;;5048054;28;20143;-76
2022/05/21 14:41:28;;;;;;;0.55;0.43;;;;;;;;;;5060944;28;20131;-77
2022/05/21 14:43:55;;;;;;;0.75;0.50;;;;;;;;;;5062475;28;20033;-75
2022/05/21 14:49:05;;;;;;;1.40;1.20;;;;;;;;;;5059695;28;20099;-75
2022/05/21 14:54:16;;;;;;;0.43;0.43;;;;;;;;;;5059111;28;20108;-76
2022/05/21 14:56:45;;;;;;;0.65;0.40;;;;;;;;;;5062540;28;20048;-76
2022/05/21 14:59:11;;;;;;;1.65;0.70;;;;;;;;;;5066265;28;20040;-76
2022/05/21 15:01:38;;;;;;;0.82;0.80;;;;;;;;;;5062885;28;20036;-76
2022/05/21 15:04:05;;;;;;;1.20;0.47;;;;;;;;;;5060265;28;20429;-76
2022/05/21 15:06:32;;;;;;;0.60;0.52;;;;;;;;;;5062489;28;20028;-77
2022/05/21 15:09:00;;;;;;;0.40;0.40;;;;;;;;;;5061354;28;20028;-76
2022/05/21 15:11:26;;;;;;;1.33;0.70;;;;;;;;;;5056430;28;20070;-78
2022/05/21 15:13:52;;;;;;;2.97;0.68;;;;;;;;;;5064032;28;20020;-81
2022/05/21 15:16:18;;;;;;;1.92;0.47;;;;;;;;;;5061894;28;20473;-83
2022/05/21 15:18:44;;;;;;;0.40;0.40;;;;;;;;;;5069651;28;20039;-79
2022/05/21 15:21:13;;;;;;;0.80;0.57;;;;;;;;;;5063526;28;20075;-81
2022/05/21 15:23:39;;;;;;;0.30;0.30;;;;;;;;;;5066285;28;20029;-81
2022/05/21 15:26:05;;;;;;;0.65;0.40;;;;;;;;;;5055617;28;20509;-78
2022/05/21 15:28:31;;;;;;;1.98;0.50;;;;;;;;;;5062622;28;20044;-77
2022/05/21 15:30:57;;;;;;;0.20;0.20;;;;;;;;;;5062381;28;20079;-77
2022/05/21 15:33:23;;;;;;;0.60;0.57;;;;;;;;;;5054112;28;20032;-77